Time;durP1;ratioP1;P1;durP2;ratioP2;P2;SDS_P1;SDS_P2;PMS_P1;PMS_P2;Temp;Humidity;BMP_temperature;BMP_pressure;BME280_temperature;BME280_humidity;BME280_pressure;Samples;Min_cycle;Max_cycle;Signal;HPM_P1;HPM_P2
2021/11/04 00:02:05;;;;;;;2.40;2.20;;;7.70;97.00;;;;;;5019136;28;20231;-90
2021/11/04 00:04:31;;;;;;;2.67;2.47;;;7.70;97.30;;;;;;5006555;28;20200;-90
2021/11/04 00:06:57;;;;;;;2.20;2.10;;;7.70;97.90;;;;;;5036385;28;20620;-90
2021/11/04 00:09:22;;;;;;;3.40;2.43;;;7.70;97.20;;;;;;5039809;28;20355;-91
2021/11/04 00:11:48;;;;;;;4.90;2.80;;;7.70;96.70;;;;;;5052462;28;20204;-91
2021/11/04 00:14:14;;;;;;;2.80;2.60;;;7.70;98.00;;;;;;5056976;28;20682;-90
2021/11/04 00:16:40;;;;;;;2.53;2.33;;;7.60;97.60;;;;;;5053835;28;20690;-92
2021/11/04 00:19:05;;;;;;;2.90;2.67;;;7.60;98.40;;;;;;5053921;28;20201;-91
2021/11/04 00:21:31;;;;;;;2.77;2.57;;;7.50;98.80;;;;;;5062476;28;20215;-90
2021/11/04 00:23:57;;;;;;;3.30;3.00;;;7.30;99.50;;;;;;5055095;28;20292;-90
2021/11/04 00:26:23;;;;;;;4.23;3.53;;;7.20;99.90;;;;;;5020892;28;20207;-92
2021/11/04 00:28:49;;;;;;;4.17;3.73;;;7.10;99.90;;;;;;5020480;28;20302;-90
2021/11/04 00:31:15;;;;;;;6.03;3.70;;;7.10;99.90;;;;;;5055150;28;20646;-91
2021/11/04 00:33:43;;;;;;;4.43;3.57;;;7.10;99.90;;;;;;5035811;28;20196;-91
2021/11/04 00:36:09;;;;;;;4.07;2.80;;;7.10;99.90;;;;;;5037130;28;20192;-91
2021/11/04 00:38:35;;;;;;;3.20;2.60;;;7.10;99.90;;;;;;5055247;28;20651;-90
2021/11/04 00:41:01;;;;;;;5.30;3.10;;;7.10;99.90;;;;;;5020782;28;20197;-92
2021/11/04 00:43:26;;;;;;;3.60;2.63;;;7.10;99.90;;;;;;5051302;28;20262;-90
2021/11/04 00:45:52;;;;;;;3.20;2.80;;;7.00;99.90;;;;;;5017645;28;20185;-90
2021/11/04 00:48:18;;;;;;;5.07;3.10;;;7.10;99.90;;;;;;5037321;28;20207;-91
2021/11/04 00:50:44;;;;;;;3.20;2.90;;;7.10;99.90;;;;;;5055326;28;20566;-90
2021/11/04 00:53:10;;;;;;;3.00;2.70;;;7.10;99.90;;;;;;5037651;28;20208;-91
2021/11/04 00:55:35;;;;;;;3.20;2.90;;;7.20;99.90;;;;;;5055383;28;20243;-92
2021/11/04 00:58:01;;;;;;;3.20;2.80;;;7.20;99.90;;;;;;5054003;28;20279;-91
2021/11/04 01:00:27;;;;;;;3.00;2.80;;;7.10;99.90;;;;;;5034437;28;20219;-91
2021/11/04 01:02:53;;;;;;;3.23;2.90;;;7.20;99.90;;;;;;5035852;28;20204;-91
2021/11/04 01:05:19;;;;;;;3.20;2.90;;;7.10;99.90;;;;;;5046857;28;20223;-90
2021/11/04 01:07:45;;;;;;;3.40;3.10;;;7.10;99.90;;;;;;5042387;28;20176;-90
2021/11/04 01:10:11;;;;;;;5.10;3.20;;;7.10;99.90;;;;;;5057379;28;20631;-90
2021/11/04 01:12:36;;;;;;;4.23;3.53;;;7.00;99.90;;;;;;5051381;28;20208;-91
2021/11/04 01:15:04;;;;;;;4.30;3.60;;;6.90;99.90;;;;;;5038130;28;20721;-91
2021/11/04 01:17:30;;;;;;;5.07;3.33;;;6.90;99.90;;;;;;5058207;28;20188;-91
2021/11/04 01:19:56;;;;;;;3.60;3.30;;;7.00;99.90;;;;;;5028817;28;20200;-90
2021/11/04 01:22:21;;;;;;;4.30;3.70;;;6.90;99.90;;;;;;5023445;28;20216;-94
2021/11/04 01:24:47;;;;;;;4.83;3.50;;;6.90;99.90;;;;;;5041100;28;20259;-90
2021/11/04 01:27:13;;;;;;;4.23;3.60;;;6.80;99.90;;;;;;5021238;28;20312;-90
2021/11/04 01:29:38;;;;;;;6.27;3.73;;;6.80;99.90;;;;;;5054490;28;20184;-91
2021/11/04 01:32:04;;;;;;;5.20;4.03;;;6.80;99.90;;;;;;5051961;28;20234;-92
2021/11/04 01:34:30;;;;;;;6.03;4.20;;;6.80;99.90;;;;;;5038284;28;20180;-91
2021/11/04 01:36:56;;;;;;;4.63;3.83;;;6.90;99.90;;;;;;5052142;28;20212;-90
2021/11/04 01:39:22;;;;;;;5.43;4.50;;;6.90;99.90;;;;;;5036976;28;20192;-90
2021/11/04 01:41:47;;;;;;;4.40;4.00;;;6.80;99.90;;;;;;5037093;28;20540;-90
2021/11/04 01:44:13;;;;;;;4.47;4.07;;;6.90;99.90;;;;;;5039532;28;20204;-92
2021/11/04 01:46:39;;;;;;;4.17;3.77;;;6.90;99.90;;;;;;5022229;28;20206;-91
2021/11/04 01:49:05;;;;;;;4.67;4.27;;;6.90;99.90;;;;;;5007110;28;20758;-90
2021/11/04 01:51:31;;;;;;;4.37;4.00;;;7.00;99.90;;;;;;5059608;28;20276;-90
2021/11/04 01:53:57;;;;;;;4.83;4.20;;;7.10;99.90;;;;;;5043940;28;20200;-91
2021/11/04 01:56:24;;;;;;;6.27;4.30;;;7.10;99.90;;;;;;5039991;28;20235;-91
2021/11/04 01:58:51;;;;;;;5.37;4.30;;;7.00;99.90;;;;;;5020748;28;20195;-90
2021/11/04 02:01:17;;;;;;;4.90;4.50;;;7.00;99.90;;;;;;5037277;28;20223;-89
2021/11/04 02:04:09;;;;;;;4.80;4.30;;;6.90;99.90;;;;;;5057713;28;20255;-90
2021/11/04 02:07:10;;;;;;;5.67;4.30;;;7.00;99.90;;;;;;5041619;28;20256;-90
2021/11/04 02:09:37;;;;;;;5.87;4.33;;;6.90;99.90;;;;;;5016680;28;20192;-91
2021/11/04 02:12:11;;;;;;;4.63;4.10;;;6.90;99.90;;;;;;5056531;28;20299;-92
2021/11/04 02:14:43;;;;;;;4.73;4.07;;;7.00;99.90;;;;;;5058551;28;20206;-91
2021/11/04 02:17:11;;;;;;;4.50;4.20;;;6.90;99.90;;;;;;5057694;28;20373;-92
2021/11/04 02:19:53;;;;;;;4.83;4.43;;;6.90;99.90;;;;;;5069830;28;20249;-92
2021/11/04 02:22:27;;;;;;;5.33;4.60;;;6.90;99.90;;;;;;5060252;28;20208;-91
2021/11/04 02:25:18;;;;;;;7.20;4.97;;;6.80;99.90;;;;;;5056195;28;20215;-91
2021/11/04 02:27:54;;;;;;;4.83;4.37;;;6.80;99.90;;;;;;5039279;28;20215;-91
2021/11/04 02:30:22;;;;;;;5.30;3.77;;;6.90;99.90;;;;;;5058635;28;20522;-91
2021/11/04 02:32:50;;;;;;;4.67;3.67;;;6.90;99.90;;;;;;5032337;28;20274;-91
2021/11/04 02:35:16;;;;;;;4.43;4.03;;;6.90;99.90;;;;;;5043411;28;20270;-91
2021/11/04 02:37:44;;;;;;;4.73;4.33;;;6.90;99.90;;;;;;5045197;28;20196;-91
2021/11/04 02:40:11;;;;;;;5.03;4.53;;;6.80;99.90;;;;;;5056909;28;20631;-91
2021/11/04 02:42:38;;;;;;;5.80;4.27;;;6.80;99.90;;;;;;5058872;28;20212;-90
2021/11/04 02:45:05;;;;;;;4.57;4.13;;;6.90;99.90;;;;;;5056412;28;20226;-90
2021/11/04 02:47:31;;;;;;;5.13;3.83;;;7.10;99.90;;;;;;5060411;28;20185;-90
2021/11/04 02:49:57;;;;;;;4.83;4.43;;;7.10;99.90;;;;;;5053986;28;20180;-92
2021/11/04 02:52:24;;;;;;;4.87;4.47;;;7.00;99.90;;;;;;5054565;28;20215;-90
2021/11/04 02:54:54;;;;;;;4.63;4.23;;;6.90;99.90;;;;;;5039826;28;20341;-91
2021/11/04 02:57:20;;;;;;;4.90;4.40;;;6.80;99.90;;;;;;5055323;28;20224;-90
2021/11/04 02:59:47;;;;;;;4.63;4.13;;;6.90;99.90;;;;;;5038912;28;20570;-90
2021/11/04 03:02:14;;;;;;;4.53;4.13;;;6.90;99.90;;;;;;5022692;28;20219;-92
2021/11/04 03:04:40;;;;;;;4.93;4.43;;;6.90;99.90;;;;;;5038478;28;20580;-90
2021/11/04 03:07:06;;;;;;;5.40;4.90;;;6.90;99.90;;;;;;5037543;28;20211;-90
2021/11/04 03:09:33;;;;;;;4.80;4.40;;;6.80;99.90;;;;;;5051309;28;20187;-90
2021/11/04 03:12:00;;;;;;;5.20;4.70;;;6.70;99.90;;;;;;5068233;28;20538;-91
2021/11/04 03:14:25;;;;;;;5.33;4.83;;;6.70;99.90;;;;;;5023663;28;20197;-90
2021/11/04 03:16:54;;;;;;;5.63;5.13;;;6.70;99.90;;;;;;5040572;28;20191;-91
2021/11/04 03:19:22;;;;;;;4.60;4.23;;;6.60;99.90;;;;;;5005955;28;20274;-91
2021/11/04 03:21:49;;;;;;;6.07;4.83;;;6.60;99.90;;;;;;5068803;28;20218;-90
2021/11/04 03:24:21;;;;;;;4.77;4.37;;;6.60;99.90;;;;;;5033781;28;20235;-91
2021/11/04 03:26:51;;;;;;;5.60;4.77;;;6.60;99.90;;;;;;5039605;28;20203;-90
2021/11/04 03:29:19;;;;;;;5.80;5.20;;;6.70;99.90;;;;;;5041325;28;20180;-90
2021/11/04 03:31:46;;;;;;;5.50;5.00;;;6.80;99.90;;;;;;5053272;28;20207;-89
2021/11/04 03:34:12;;;;;;;5.43;4.93;;;6.90;99.90;;;;;;5046122;28;20697;-92
2021/11/04 03:36:41;;;;;;;5.50;4.73;;;6.90;99.90;;;;;;5061339;28;20212;-90
2021/11/04 03:39:07;;;;;;;5.70;5.00;;;7.10;99.90;;;;;;5032139;28;20197;-91
2021/11/04 03:41:35;;;;;;;5.60;5.10;;;7.10;99.90;;;;;;5056872;28;20219;-90
2021/11/04 03:44:01;;;;;;;5.63;4.90;;;7.10;99.90;;;;;;5042110;28;20295;-90
2021/11/04 03:46:28;;;;;;;4.93;4.53;;;7.10;99.90;;;;;;5058460;28;20215;-90
2021/11/04 03:48:54;;;;;;;4.83;4.43;;;7.00;99.90;;;;;;5055803;28;20742;-90
2021/11/04 03:51:23;;;;;;;5.60;5.03;;;6.90;99.90;;;;;;5057018;28;20216;-90
2021/11/04 03:53:49;;;;;;;4.87;4.43;;;6.70;99.90;;;;;;5040092;28;20199;-91
2021/11/04 03:56:16;;;;;;;4.57;4.17;;;6.60;99.90;;;;;;5055144;28;20255;-91
2021/11/04 03:58:43;;;;;;;4.43;4.03;;;6.60;99.90;;;;;;5054711;28;20702;-91
2021/11/04 04:01:10;;;;;;;6.03;3.53;;;6.60;99.90;;;;;;5036511;28;20201;-90
2021/11/04 04:03:36;;;;;;;4.33;3.73;;;6.60;99.90;;;;;;5056108;28;20260;-91
2021/11/04 04:06:07;;;;;;;4.07;3.67;;;6.50;99.90;;;;;;5052662;28;20203;-92
2021/11/04 04:08:41;;;;;;;4.30;4.00;;;6.40;99.90;;;;;;5061645;28;20188;-92
2021/11/04 04:11:07;;;;;;;3.70;3.37;;;6.50;99.90;;;;;;5021046;28;20185;-91
2021/11/04 04:13:33;;;;;;;4.43;3.97;;;6.70;99.90;;;;;;5023476;28;20203;-91
2021/11/04 04:15:58;;;;;;;4.20;3.90;;;6.70;99.90;;;;;;5039222;28;20184;-91
2021/11/04 04:18:24;;;;;;;4.07;3.67;;;6.70;99.90;;;;;;5056298;28;20291;-90
2021/11/04 04:20:51;;;;;;;4.33;3.40;;;6.80;99.90;;;;;;5057714;28;20184;-90
2021/11/04 04:23:18;;;;;;;4.30;3.97;;;6.80;99.90;;;;;;5051277;28;20200;-91
2021/11/04 04:25:44;;;;;;;4.13;3.73;;;6.70;99.90;;;;;;5039630;28;20204;-90
2021/11/04 04:28:10;;;;;;;3.70;3.40;;;6.60;99.90;;;;;;5039098;28;20181;-89
2021/11/04 04:30:36;;;;;;;4.00;3.60;;;6.50;99.90;;;;;;5042978;28;20211;-90
2021/11/04 04:33:02;;;;;;;3.90;3.50;;;6.50;99.90;;;;;;5040548;28;20212;-90
2021/11/04 04:35:28;;;;;;;3.70;3.40;;;6.50;99.90;;;;;;5061412;28;20208;-90
2021/11/04 04:37:54;;;;;;;4.10;3.73;;;6.50;99.90;;;;;;5061879;28;20287;-90
2021/11/04 04:40:19;;;;;;;4.37;4.00;;;6.50;99.90;;;;;;5039947;28;20275;-90
2021/11/04 04:42:46;;;;;;;4.73;4.33;;;6.50;99.90;;;;;;5044257;28;20212;-90
2021/11/04 04:45:15;;;;;;;4.70;4.30;;;6.30;99.90;;;;;;5044409;28;20204;-90
2021/11/04 04:47:42;;;;;;;5.10;4.60;;;6.40;99.90;;;;;;5050163;28;20189;-90
2021/11/04 04:50:08;;;;;;;4.17;3.87;;;6.40;99.90;;;;;;5052293;28;20187;-90
2021/11/04 04:52:34;;;;;;;5.13;4.50;;;6.30;99.90;;;;;;5045275;28;20217;-90
2021/11/04 04:55:00;;;;;;;5.60;4.30;;;6.30;99.90;;;;;;5045975;28;20226;-91
2021/11/04 04:57:26;;;;;;;5.07;4.07;;;6.30;99.90;;;;;;5065881;28;20192;-92
2021/11/04 04:59:55;;;;;;;4.63;3.60;;;6.30;99.90;;;;;;5031093;28;20284;-90
2021/11/04 05:02:21;;;;;;;3.93;3.40;;;6.30;99.90;;;;;;5059785;28;20204;-90
2021/11/04 05:04:47;;;;;;;3.83;3.53;;;6.50;99.90;;;;;;5041632;28;20215;-90
2021/11/04 05:07:14;;;;;;;3.80;3.20;;;6.40;99.90;;;;;;5060047;28;20201;-90
2021/11/04 05:09:39;;;;;;;3.80;3.40;;;6.50;99.90;;;;;;5028744;28;20192;-90
2021/11/04 05:12:05;;;;;;;3.37;3.17;;;6.50;99.90;;;;;;5043680;28;20206;-91
2021/11/04 05:14:31;;;;;;;3.63;3.33;;;6.60;99.90;;;;;;5027011;28;20704;-90
2021/11/04 05:16:57;;;;;;;6.43;3.60;;;6.60;99.90;;;;;;5026805;28;20199;-91
2021/11/04 05:19:23;;;;;;;3.83;3.53;;;6.60;99.90;;;;;;5030404;28;20207;-92
2021/11/04 05:21:49;;;;;;;4.03;3.63;;;6.50;99.90;;;;;;5025368;28;20564;-91
2021/11/04 05:24:14;;;;;;;3.53;3.20;;;6.40;99.90;;;;;;5027056;28;20204;-91
2021/11/04 05:26:40;;;;;;;4.07;3.40;;;6.40;99.90;;;;;;5059212;28;20699;-90
2021/11/04 05:29:06;;;;;;;4.00;3.60;;;6.50;99.90;;;;;;5039206;28;20252;-90
2021/11/04 05:31:33;;;;;;;3.90;3.60;;;6.40;99.90;;;;;;5032676;28;20192;-91
2021/11/04 05:33:59;;;;;;;4.07;3.70;;;6.40;99.90;;;;;;5055711;28;20196;-92
2021/11/04 05:36:25;;;;;;;3.83;3.53;;;6.40;99.90;;;;;;5042705;28;20211;-92
2021/11/04 05:39:14;;;;;;;4.20;3.80;;;6.30;99.90;;;;;;5057457;28;20262;-90
2021/11/04 05:41:41;;;;;;;4.60;4.20;;;6.30;99.90;;;;;;5055078;28;20209;-91
2021/11/04 05:44:06;;;;;;;5.50;5.00;;;6.30;99.90;;;;;;5057112;28;20311;-91
2021/11/04 05:46:32;;;;;;;5.47;4.97;;;6.20;99.90;;;;;;5058298;28;20256;-90
2021/11/04 05:48:58;;;;;;;5.70;5.20;;;6.20;99.90;;;;;;5042827;28;20195;-90
2021/11/04 05:51:23;;;;;;;5.50;5.00;;;6.20;99.90;;;;;;5026138;28;20710;-91
2021/11/04 05:53:49;;;;;;;5.63;5.13;;;6.20;99.90;;;;;;5059821;28;20192;-91
2021/11/04 05:56:15;;;;;;;5.03;4.63;;;6.30;99.90;;;;;;5021150;28;20559;-89
2021/11/04 05:58:41;;;;;;;6.27;4.40;;;6.40;99.90;;;;;;5041813;28;20231;-89
2021/11/04 06:01:06;;;;;;;4.53;4.13;;;6.40;99.90;;;;;;5040402;28;20218;-89
2021/11/04 06:03:32;;;;;;;5.03;4.53;;;6.30;99.90;;;;;;5038003;28;20241;-88
2021/11/04 06:05:58;;;;;;;5.63;4.83;;;6.30;99.90;;;;;;5024067;28;20252;-89
2021/11/04 06:08:24;;;;;;;5.70;4.80;;;6.30;99.90;;;;;;5022981;28;20181;-89
2021/11/04 06:10:49;;;;;;;5.07;4.57;;;6.30;99.90;;;;;;5057323;28;20220;-90
2021/11/04 06:13:15;;;;;;;6.07;4.53;;;6.20;99.90;;;;;;5009698;28;20207;-89
2021/11/04 06:15:41;;;;;;;5.57;5.07;;;6.10;99.90;;;;;;5044596;28;20184;-89
2021/11/04 06:18:07;;;;;;;6.43;4.80;;;6.20;99.90;;;;;;5079375;28;20675;-90
2021/11/04 06:20:32;;;;;;;6.23;5.63;;;6.20;99.90;;;;;;5034795;28;20207;-89
2021/11/04 06:22:58;;;;;;;6.80;4.73;;;6.20;99.90;;;;;;5023765;28;20208;-89
2021/11/04 06:25:24;;;;;;;5.57;5.07;;;6.30;99.90;;;;;;5058644;28;20208;-89
2021/11/04 06:27:50;;;;;;;5.80;5.30;;;6.30;99.90;;;;;;5062862;28;20334;-89
2021/11/04 06:30:16;;;;;;;5.97;5.37;;;6.30;99.90;;;;;;5027673;28;20207;-89
2021/11/04 06:32:42;;;;;;;6.03;5.50;;;6.30;99.90;;;;;;5043359;28;20704;-89
2021/11/04 06:35:09;;;;;;;8.50;6.33;;;6.20;99.90;;;;;;5062555;28;20188;-89
2021/11/04 06:37:38;;;;;;;7.40;6.70;;;6.20;99.90;;;;;;5040757;28;20553;-89
2021/11/04 06:40:06;;;;;;;9.37;6.60;;;6.20;99.90;;;;;;5082825;28;20176;-89
2021/11/04 06:42:32;;;;;;;7.80;6.70;;;6.30;99.90;;;;;;5065352;28;20202;-90
2021/11/04 06:44:57;;;;;;;7.83;7.03;;;6.30;99.90;;;;;;5083340;28;20195;-89
2021/11/04 06:47:35;;;;;;;7.70;6.73;;;6.40;99.90;;;;;;5057800;28;20180;-90
2021/11/04 06:50:02;;;;;;;8.20;7.40;;;6.40;99.90;;;;;;5045249;28;20203;-89
2021/11/04 06:52:34;;;;;;;8.30;7.60;;;6.40;99.90;;;;;;5062711;28;20205;-89
2021/11/04 06:55:03;;;;;;;9.80;8.23;;;6.30;99.90;;;;;;5062193;28;20165;-89
2021/11/04 06:57:32;;;;;;;9.60;8.67;;;6.30;99.90;;;;;;5063821;28;20195;-90
2021/11/04 07:00:00;;;;;;;10.63;9.17;;;6.30;99.90;;;;;;5063872;28;20249;-89
2021/11/04 07:02:35;;;;;;;9.33;8.37;;;6.30;99.90;;;;;;5027921;28;20204;-89
2021/11/04 07:05:03;;;;;;;10.20;9.03;;;6.40;99.90;;;;;;5061714;28;20198;-90
2021/11/04 07:07:33;;;;;;;9.97;8.80;;;6.50;99.90;;;;;;5045129;28;20181;-90
2021/11/04 07:10:01;;;;;;;10.57;9.10;;;6.50;99.90;;;;;;5045070;28;20689;-90
2021/11/04 07:12:26;;;;;;;10.80;9.80;;;6.50;99.90;;;;;;5062704;28;20212;-90
2021/11/04 07:14:52;;;;;;;11.03;9.13;;;6.50;99.90;;;;;;5047578;28;20683;-90
2021/11/04 07:17:18;;;;;;;11.83;9.87;;;6.50;99.90;;;;;;5043601;28;20194;-90
2021/11/04 07:19:46;;;;;;;9.70;8.77;;;6.70;99.90;;;;;;5011779;28;20192;-90
2021/11/04 07:22:35;;;;;;;11.17;9.77;;;6.70;99.90;;;;;;5062006;28;20682;-90
2021/11/04 07:25:08;;;;;;;11.53;10.27;;;6.80;99.90;;;;;;5060810;28;20196;-90
2021/11/04 07:27:55;;;;;;;10.93;9.93;;;6.60;99.90;;;;;;5062263;28;20235;-90
2021/11/04 07:30:23;;;;;;;12.27;10.90;;;6.60;99.90;;;;;;5053842;28;20185;-90
2021/11/04 07:32:50;;;;;;;11.80;9.60;;;6.60;99.90;;;;;;5032514;28;20239;-89
2021/11/04 07:35:21;;;;;;;10.77;9.67;;;6.70;99.90;;;;;;5063106;28;20402;-88
2021/11/04 07:37:48;;;;;;;11.03;9.93;;;6.80;99.90;;;;;;5040615;28;20200;-89
2021/11/04 07:40:16;;;;;;;12.83;10.83;;;6.80;99.90;;;;;;5028179;28;20203;-89
2021/11/04 07:42:43;;;;;;;12.13;10.30;;;6.80;99.90;;;;;;5059029;28;20213;-89
2021/11/04 07:45:09;;;;;;;10.57;9.47;;;6.70;99.90;;;;;;5042988;28;20245;-89
2021/11/04 07:47:38;;;;;;;10.23;9.23;;;6.80;99.90;;;;;;5054538;28;20184;-88
2021/11/04 07:50:05;;;;;;;11.67;10.43;;;6.90;99.90;;;;;;5058193;28;20196;-90
2021/11/04 07:52:31;;;;;;;10.33;9.23;;;6.90;99.90;;;;;;5063900;28;20570;-88
2021/11/04 07:55:00;;;;;;;10.37;9.37;;;6.80;99.90;;;;;;5060477;28;20267;-88
2021/11/04 07:57:26;;;;;;;12.73;10.43;;;6.90;99.90;;;;;;5040722;28;20217;-88
2021/11/04 07:59:52;;;;;;;10.97;9.87;;;6.80;99.90;;;;;;5051787;28;20181;-88
2021/11/04 08:02:18;;;;;;;11.30;9.93;;;6.80;99.90;;;;;;5050123;28;20234;-88
2021/11/04 08:04:44;;;;;;;10.83;9.40;;;6.90;99.90;;;;;;5044020;28;20299;-89
2021/11/04 08:07:09;;;;;;;11.70;10.50;;;6.90;99.90;;;;;;5049566;28;20248;-89
2021/11/04 08:09:36;;;;;;;13.03;10.87;;;6.90;99.90;;;;;;5030518;28;20196;-88
2021/11/04 08:12:02;;;;;;;11.57;10.37;;;6.80;99.90;;;;;;5043179;28;20219;-88
2021/11/04 08:14:27;;;;;;;11.83;10.63;;;6.70;99.90;;;;;;5054363;28;20197;-88
2021/11/04 08:16:53;;;;;;;11.73;10.53;;;6.80;99.90;;;;;;5038016;28;20177;-89
2021/11/04 08:19:19;;;;;;;12.43;10.70;;;6.80;99.90;;;;;;5058989;28;20664;-89
2021/11/04 08:21:45;;;;;;;12.13;10.70;;;6.90;99.90;;;;;;5061889;28;20725;-89
2021/11/04 08:24:11;;;;;;;12.70;11.43;;;6.90;99.90;;;;;;5040276;28;20283;-89
2021/11/04 08:26:37;;;;;;;11.70;10.20;;;6.90;99.90;;;;;;5035134;28;20193;-89
2021/11/04 08:29:03;;;;;;;13.47;11.50;;;7.00;99.90;;;;;;5054680;28;20231;-89
2021/11/04 08:31:30;;;;;;;13.40;11.53;;;7.00;99.90;;;;;;5056290;28;20277;-88
2021/11/04 08:33:56;;;;;;;12.73;11.23;;;6.90;99.90;;;;;;5050791;28;20670;-89
2021/11/04 08:36:22;;;;;;;13.47;11.70;;;7.00;99.90;;;;;;5057061;28;20196;-90
2021/11/04 08:38:47;;;;;;;12.17;10.87;;;7.10;99.90;;;;;;5048271;28;20615;-89
2021/11/04 08:41:15;;;;;;;11.70;10.50;;;6.90;99.90;;;;;;5054052;28;20258;-89
2021/11/04 08:43:41;;;;;;;14.40;12.70;;;7.00;99.90;;;;;;5057844;28;20223;-88
2021/11/04 08:46:08;;;;;;;14.27;11.90;;;7.10;99.90;;;;;;5052684;28;20204;-89
2021/11/04 08:48:35;;;;;;;13.03;11.53;;;7.10;99.90;;;;;;5035767;28;20258;-90
2021/11/04 08:51:02;;;;;;;14.93;13.33;;;7.30;99.90;;;;;;5055176;28;20655;-89
2021/11/04 08:53:28;;;;;;;18.00;12.87;;;7.20;99.90;;;;;;5040292;28;20188;-90
2021/11/04 08:55:55;;;;;;;15.33;12.83;;;7.20;99.90;;;;;;5045919;28;20180;-89
2021/11/04 08:58:21;;;;;;;14.80;13.07;;;7.10;99.90;;;;;;5040746;28;20307;-90
2021/11/04 09:00:47;;;;;;;15.43;13.00;;;7.10;99.90;;;;;;5061697;28;20192;-90
2021/11/04 09:03:15;;;;;;;16.23;13.37;;;7.10;99.90;;;;;;5047439;28;20357;-90
2021/11/04 09:05:43;;;;;;;17.17;14.03;;;7.10;99.90;;;;;;5059932;28;20209;-89
2021/11/04 09:08:09;;;;;;;17.73;14.37;;;7.10;99.90;;;;;;5060551;28;20211;-89
2021/11/04 09:10:35;;;;;;;17.20;14.30;;;7.10;99.90;;;;;;5053744;28;20187;-91
2021/11/04 09:13:00;;;;;;;17.97;15.17;;;7.20;99.90;;;;;;5039179;28;20690;-90
2021/11/04 09:15:26;;;;;;;18.97;14.53;;;7.20;99.90;;;;;;5058095;28;20188;-88
2021/11/04 09:17:52;;;;;;;18.97;15.07;;;7.30;99.90;;;;;;5042404;28;20188;-90
2021/11/04 09:20:18;;;;;;;20.07;15.33;;;7.20;99.90;;;;;;5061752;28;20188;-90
2021/11/04 09:22:48;;;;;;;18.20;14.93;;;7.10;99.90;;;;;;5058476;28;20208;-90
2021/11/04 09:25:17;;;;;;;18.27;15.00;;;7.20;99.90;;;;;;5040361;28;20266;-90
2021/11/04 09:27:43;;;;;;;23.80;16.73;;;7.20;99.90;;;;;;5040477;28;20199;-90
2021/11/04 09:30:09;;;;;;;20.47;16.57;;;7.30;99.90;;;;;;5039276;28;20220;-90
2021/11/04 09:32:35;;;;;;;21.70;15.67;;;7.20;99.90;;;;;;5058776;28;20204;-90
2021/11/04 09:35:03;;;;;;;21.40;17.50;;;7.20;99.90;;;;;;5058610;28;20195;-90
2021/11/04 09:37:29;;;;;;;24.30;18.00;;;7.10;99.90;;;;;;5045731;28;20231;-90
2021/11/04 09:39:54;;;;;;;20.60;17.57;;;7.00;99.90;;;;;;5052761;28;20575;-90
2021/11/04 09:42:21;;;;;;;23.07;17.83;;;7.20;99.90;;;;;;5042609;28;20211;-90
2021/11/04 09:44:48;;;;;;;21.90;17.77;;;7.10;99.90;;;;;;5043305;28;20212;-90
2021/11/04 09:47:19;;;;;;;21.13;17.67;;;7.10;99.90;;;;;;5051035;28;20181;-90
2021/11/04 09:49:45;;;;;;;21.23;18.23;;;7.20;99.90;;;;;;5052208;28;20173;-90
2021/11/04 09:52:11;;;;;;;24.07;18.80;;;7.00;99.90;;;;;;5067863;28;20236;-91
2021/11/04 09:54:36;;;;;;;20.07;16.60;;;7.00;99.90;;;;;;5033165;28;20188;-90
2021/11/04 09:57:06;;;;;;;21.37;16.37;;;7.10;99.90;;;;;;5034998;28;20256;-90
2021/11/04 09:59:32;;;;;;;18.53;16.47;;;7.10;99.90;;;;;;5024320;28;20195;-90
2021/11/04 10:01:59;;;;;;;21.10;17.03;;;7.20;99.90;;;;;;5069333;28;20303;-90
2021/11/04 10:04:32;;;;;;;22.27;16.90;;;7.20;99.90;;;;;;5058385;28;20594;-89
2021/11/04 10:06:58;;;;;;;21.53;18.43;;;7.20;99.90;;;;;;5053538;28;20190;-89
2021/11/04 10:09:28;;;;;;;21.57;18.67;;;7.10;99.90;;;;;;5062277;28;20255;-90
2021/11/04 10:11:54;;;;;;;21.60;18.07;;;7.20;99.90;;;;;;5051871;28;20200;-90
2021/11/04 10:14:21;;;;;;;21.63;18.83;;;7.00;99.90;;;;;;5054942;28;20219;-90
2021/11/04 10:16:46;;;;;;;19.93;17.10;;;7.00;99.90;;;;;;5042842;28;20197;-90
2021/11/04 10:19:16;;;;;;;20.37;17.17;;;7.10;99.90;;;;;;5049045;28;20185;-90
2021/11/04 10:21:46;;;;;;;21.37;17.87;;;7.10;99.90;;;;;;5052067;28;20228;-90
2021/11/04 10:24:20;;;;;;;22.23;18.07;;;7.10;99.90;;;;;;5044453;28;20212;-90
2021/11/04 10:26:52;;;;;;;20.10;17.03;;;7.10;99.90;;;;;;5055478;28;20247;-91
2021/11/04 10:29:18;;;;;;;20.73;17.60;;;7.30;99.90;;;;;;5040246;28;20192;-90
2021/11/04 10:31:50;;;;;;;20.13;17.17;;;7.20;99.90;;;;;;5051678;28;20215;-90
2021/11/04 10:34:34;;;;;;;19.90;17.70;;;7.30;99.90;;;;;;5051041;28;20206;-90
2021/11/04 10:37:09;;;;;;;20.43;17.57;;;7.20;99.90;;;;;;5052531;28;20191;-90
2021/11/04 10:39:38;;;;;;;20.47;18.27;;;7.30;99.90;;;;;;5053083;28;20239;-90
2021/11/04 10:42:04;;;;;;;22.33;17.93;;;7.20;99.90;;;;;;5060065;28;20212;-90
2021/11/04 10:44:31;;;;;;;19.67;16.43;;;7.20;99.90;;;;;;5047493;28;20539;-91
2021/11/04 10:46:58;;;;;;;20.83;17.40;;;7.30;99.90;;;;;;5049756;28;20184;-90
2021/11/04 10:49:39;;;;;;;19.30;17.17;;;7.30;99.90;;;;;;5064155;28;20226;-90
2021/11/04 10:52:08;;;;;;;21.23;17.90;;;7.30;99.90;;;;;;5060291;28;20204;-90
2021/11/04 10:54:47;;;;;;;23.30;19.53;;;7.20;99.90;;;;;;5060087;28;20226;-90
2021/11/04 10:57:13;;;;;;;19.53;17.17;;;7.20;99.90;;;;;;5056849;28;20285;-90
2021/11/04 10:59:44;;;;;;;19.20;17.17;;;7.20;99.90;;;;;;5054392;28;20247;-90
2021/11/04 11:02:10;;;;;;;20.93;16.90;;;7.20;99.90;;;;;;5043152;28;20208;-91
2021/11/04 11:04:36;;;;;;;19.87;16.57;;;7.20;99.90;;;;;;5052245;28;20197;-90
2021/11/04 11:07:03;;;;;;;18.90;16.90;;;7.30;99.90;;;;;;5028690;28;20230;-90
2021/11/04 11:09:31;;;;;;;19.90;17.80;;;7.30;99.90;;;;;;5054789;28;20181;-90
2021/11/04 11:11:59;;;;;;;18.47;15.70;;;7.40;99.90;;;;;;5050144;28;20212;-90
2021/11/04 11:14:29;;;;;;;18.00;15.47;;;7.50;99.90;;;;;;5058723;28;20188;-90
2021/11/04 11:17:01;;;;;;;18.63;16.67;;;7.50;99.90;;;;;;5052414;28;20677;-90
2021/11/04 11:19:28;;;;;;;20.60;17.00;;;7.30;99.90;;;;;;5032496;28;20196;-90
2021/11/04 11:21:54;;;;;;;17.23;15.43;;;7.40;99.90;;;;;;5059822;28;20215;-90
2021/11/04 11:24:38;;;;;;;17.57;15.20;;;7.40;99.90;;;;;;5060359;28;20305;-90
2021/11/04 11:27:16;;;;;;;18.43;16.33;;;7.40;99.90;;;;;;5053560;28;20227;-90
2021/11/04 11:29:44;;;;;;;17.90;16.00;;;7.40;99.90;;;;;;5028990;28;20187;-89
2021/11/04 11:32:21;;;;;;;17.63;14.83;;;7.40;99.90;;;;;;5033261;28;20200;-90
2021/11/04 11:34:47;;;;;;;19.10;17.20;;;7.40;99.90;;;;;;5040617;28;20195;-90
2021/11/04 11:37:20;;;;;;;18.37;16.33;;;7.40;99.90;;;;;;5049132;28;20427;-89
2021/11/04 11:39:50;;;;;;;17.73;15.93;;;7.40;99.90;;;;;;5046958;28;20192;-90
2021/11/04 11:42:25;;;;;;;18.07;16.20;;;7.40;99.90;;;;;;5045364;28;20216;-90
2021/11/04 11:45:09;;;;;;;21.37;15.97;;;7.50;99.90;;;;;;5044976;28;20204;-89
2021/11/04 11:47:45;;;;;;;18.83;15.73;;;7.40;99.90;;;;;;5055431;28;20184;-90
2021/11/04 11:50:30;;;;;;;16.47;14.77;;;7.40;99.90;;;;;;5059295;28;20180;-90
2021/11/04 11:52:59;;;;;;;15.40;13.90;;;7.40;99.90;;;;;;5042903;28;20207;-89
2021/11/04 11:55:37;;;;;;;17.27;15.57;;;7.40;99.90;;;;;;5051257;28;20577;-89
2021/11/04 11:58:15;;;;;;;16.43;14.73;;;7.40;99.90;;;;;;5060307;28;20171;-92
2021/11/04 12:00:54;;;;;;;16.40;14.67;;;7.50;99.90;;;;;;5051528;28;20594;-87
2021/11/04 12:03:32;;;;;;;17.83;16.00;;;7.40;99.80;;;;;;5034231;28;20184;-90
2021/11/04 12:06:05;;;;;;;18.43;16.43;;;7.30;99.90;;;;;;5046465;28;20191;-90
2021/11/04 12:08:38;;;;;;;17.47;15.67;;;7.30;99.90;;;;;;5037421;28;20212;-90
2021/11/04 12:11:07;;;;;;;16.60;14.97;;;7.20;99.90;;;;;;5046196;28;20254;-90
2021/11/04 12:13:45;;;;;;;17.17;15.43;;;7.40;99.90;;;;;;5053851;28;20181;-90
2021/11/04 12:16:20;;;;;;;15.90;14.23;;;7.40;99.90;;;;;;5058013;28;20196;-90
2021/11/04 12:19:01;;;;;;;16.40;14.80;;;7.40;99.50;;;;;;5058869;28;20322;-89
2021/11/04 12:21:37;;;;;;;17.57;15.77;;;7.40;99.90;;;;;;5057175;28;20192;-89
2021/11/04 12:24:06;;;;;;;17.30;15.53;;;7.40;99.90;;;;;;5041560;28;20730;-90
2021/11/04 12:26:38;;;;;;;20.00;16.23;;;7.50;99.90;;;;;;5055913;28;20187;-90
2021/11/04 12:29:06;;;;;;;17.53;15.67;;;7.40;99.90;;;;;;5057055;28;20200;-90
2021/11/04 12:31:36;;;;;;;17.37;15.57;;;7.40;99.90;;;;;;5038492;28;20245;-89
2021/11/04 12:34:03;;;;;;;17.90;16.13;;;7.40;99.90;;;;;;5054752;28;20177;-90
2021/11/04 12:36:38;;;;;;;16.97;15.03;;;7.70;99.50;;;;;;5048088;28;20216;-89
2021/11/04 12:39:18;;;;;;;16.93;15.13;;;7.60;99.70;;;;;;5044780;28;20212;-89
2021/11/04 12:41:49;;;;;;;16.43;13.93;;;7.80;99.30;;;;;;5048625;28;20200;-90
2021/11/04 12:44:15;;;;;;;16.73;15.07;;;7.90;97.30;;;;;;5044010;28;20288;-90
2021/11/04 12:46:48;;;;;;;17.87;14.23;;;7.90;97.70;;;;;;5045355;28;20191;-89
2021/11/04 12:49:15;;;;;;;16.70;14.97;;;7.90;98.30;;;;;;5049249;28;20195;-89
2021/11/04 12:51:47;;;;;;;15.43;13.83;;;8.00;98.00;;;;;;5044151;28;20309;-90
2021/11/04 12:54:17;;;;;;;15.90;14.30;;;8.10;97.20;;;;;;5045756;28;20192;-90